createdAt,value
2023-01-13T00:01:07.648Z,2.75
2023-01-13T00:03:37.016Z,3.00
2023-01-13T00:06:05.037Z,3.50
2023-01-13T00:08:33.074Z,3.00
2023-01-13T00:11:01.265Z,3.50
2023-01-13T00:13:29.183Z,2.00
2023-01-13T00:15:58.087Z,3.00
2023-01-13T00:18:26.225Z,2.00
2023-01-13T00:21:05.862Z,3.00
2023-01-13T00:23:34.354Z,3.00
2023-01-13T00:26:03.237Z,2.00
2023-01-13T00:28:31.171Z,2.75
2023-01-13T00:31:05.387Z,3.00
2023-01-13T00:33:33.339Z,2.25
2023-01-13T00:36:01.625Z,2.00
2023-01-13T00:38:31.808Z,2.00
2023-01-13T00:41:00.247Z,2.00
2023-01-13T00:43:27.258Z,2.00
2023-01-13T00:45:55.212Z,2.50
2023-01-13T00:48:24.010Z,2.00
2023-01-13T00:50:56.213Z,2.00
2023-01-13T00:53:24.190Z,2.00
2023-01-13T00:55:59.637Z,2.00
2023-01-13T00:58:27.549Z,2.00
2023-01-13T01:00:55.895Z,2.00
2023-01-13T01:03:23.894Z,1.50
2023-01-13T01:05:51.846Z,2.00
2023-01-13T01:08:19.761Z,1.50
2023-01-13T01:10:48.145Z,2.00
2023-01-13T01:13:17.539Z,1.00
2023-01-13T01:15:45.462Z,3.00
2023-01-13T01:18:13.396Z,1.00
2023-01-13T01:20:41.280Z,1.00
2023-01-13T01:23:09.609Z,1.25
2023-01-13T01:25:37.517Z,1.00
2023-01-13T01:28:05.501Z,1.00
2023-01-13T01:30:34.797Z,2.00
2023-01-13T01:33:05.238Z,1.00
2023-01-13T01:35:33.223Z,1.00
2023-01-13T01:38:01.166Z,1.00
2023-01-13T01:40:29.129Z,1.00
2023-01-13T01:43:14.418Z,1.00
2023-01-13T01:45:43.751Z,1.00
2023-01-13T01:48:11.695Z,1.00
2023-01-13T01:50:39.648Z,1.00
2023-01-13T01:53:09.781Z,1.00
2023-01-13T01:55:38.008Z,1.00
2023-01-13T01:58:08.432Z,0.00
2023-01-13T02:00:36.424Z,1.00
2023-01-13T02:03:06.157Z,1.00
2023-01-13T02:05:34.675Z,1.00
2023-01-13T02:08:02.610Z,1.00
2023-01-13T02:10:30.738Z,1.00
2023-01-13T02:13:00.203Z,0.00
2023-01-13T02:15:30.137Z,1.00
2023-01-13T02:18:10.090Z,0.75
2023-01-13T02:21:05.906Z,0.00
2023-01-13T02:24:19.389Z,0.50
2023-01-13T02:27:21.513Z,1.00
2023-01-13T02:30:17.167Z,0.00
2023-01-13T02:32:50.308Z,0.25
2023-01-13T02:35:22.104Z,0.75
2023-01-13T02:37:49.973Z,0.00
2023-01-13T02:40:20.824Z,0.00
2023-01-13T02:43:07.769Z,0.00
2023-01-13T02:45:38.241Z,0.00
2023-01-13T02:48:07.306Z,1.00
2023-01-13T02:50:37.222Z,0.00
2023-01-13T02:53:07.183Z,0.00
2023-01-13T02:55:36.460Z,1.00
2023-01-13T02:58:05.124Z,0.00
2023-01-13T03:00:33.782Z,0.00
2023-01-13T03:03:03.490Z,0.00
2023-01-13T03:05:31.854Z,0.00
2023-01-13T03:08:10.573Z,0.00
2023-01-13T03:11:02.399Z,0.00
2023-01-13T03:14:02.891Z,0.00
2023-01-13T03:16:33.015Z,0.00
2023-01-13T03:19:16.291Z,0.00
2023-01-13T03:21:49.141Z,0.00
2023-01-13T03:24:19.038Z,0.00
2023-01-13T03:26:48.258Z,0.00
2023-01-13T03:29:18.884Z,0.00
2023-01-13T03:31:50.819Z,0.00
2023-01-13T03:34:21.874Z,0.00
2023-01-13T03:36:50.898Z,0.25
2023-01-13T03:39:21.438Z,0.00
2023-01-13T03:41:52.993Z,0.00
2023-01-13T03:44:23.691Z,0.00
2023-01-13T03:46:58.228Z,0.00
2023-01-13T03:49:28.324Z,0.00
2023-01-13T03:51:57.555Z,0.00
2023-01-13T03:54:26.060Z,0.00
2023-01-13T03:56:56.047Z,0.00
2023-01-13T03:59:25.117Z,0.00
2023-01-13T04:01:55.684Z,0.00
2023-01-13T04:04:25.384Z,0.00
2023-01-13T04:06:56.394Z,0.00
2023-01-13T04:09:27.932Z,0.00
2023-01-13T04:11:56.999Z,0.00
2023-01-13T04:14:24.875Z,0.00
2023-01-13T04:16:52.776Z,0.00
2023-01-13T04:19:20.726Z,0.00
2023-01-13T04:21:48.597Z,0.00
2023-01-13T04:24:17.916Z,0.00
2023-01-13T04:26:45.764Z,0.00
2023-01-13T04:29:15.498Z,0.25
2023-01-13T04:31:44.029Z,0.00
2023-01-13T04:34:12.034Z,0.00
2023-01-13T04:36:39.956Z,0.00
2023-01-13T04:39:07.820Z,0.00
2023-01-13T04:41:51.380Z,0.00
2023-01-13T04:44:19.304Z,0.00
2023-01-13T04:46:47.480Z,0.00
2023-01-13T04:49:15.374Z,0.00
2023-01-13T04:51:43.671Z,0.00
2023-01-13T04:54:11.909Z,0.00
2023-01-13T04:56:41.254Z,0.00
2023-01-13T04:59:10.348Z,0.00
2023-01-13T05:01:39.168Z,0.00
2023-01-13T05:04:07.396Z,0.00
2023-01-13T05:06:35.295Z,0.00
2023-01-13T05:09:03.169Z,0.00
2023-01-13T05:11:48.805Z,0.00
2023-01-13T05:14:35.619Z,0.00
2023-01-13T05:17:03.710Z,0.00
2023-01-13T05:19:32.533Z,0.00
2023-01-13T05:22:18.390Z,0.00
2023-01-13T05:25:03.620Z,0.00
2023-01-13T05:27:31.767Z,0.00
2023-01-13T05:30:01.097Z,2.00
2023-01-13T05:32:29.275Z,4.00
2023-01-13T05:34:57.221Z,5.00
2023-01-13T05:37:25.766Z,6.00
2023-01-13T05:40:11.333Z,6.00
2023-01-13T05:42:56.768Z,6.00
2023-01-13T05:45:26.040Z,5.00
2023-01-13T05:47:53.980Z,7.00
2023-01-13T05:50:21.899Z,7.00
2023-01-13T05:52:50.127Z,5.00
2023-01-13T05:55:18.044Z,5.00
2023-01-13T05:57:46.027Z,6.00
2023-01-13T06:00:15.034Z,6.75
2023-01-13T06:02:44.646Z,5.00
2023-01-13T06:05:12.555Z,5.25
2023-01-13T06:07:40.476Z,6.00
2023-01-13T06:10:10.049Z,6.00
2023-01-13T06:12:38.193Z,6.25
2023-01-13T06:15:09.462Z,6.00
2023-01-13T06:17:37.407Z,5.00
2023-01-13T06:20:09.039Z,5.25
2023-01-13T06:22:39.892Z,6.50
2023-01-13T06:25:11.045Z,5.00
2023-01-13T06:27:38.966Z,6.00
2023-01-13T06:30:10.280Z,6.00
2023-01-13T06:32:39.748Z,5.50
2023-01-13T06:35:10.752Z,5.50
2023-01-13T06:37:38.655Z,5.50
2023-01-13T06:40:07.669Z,5.00
2023-01-13T06:42:54.235Z,5.00
2023-01-13T06:45:22.214Z,4.00
2023-01-13T06:47:50.076Z,5.00
2023-01-13T06:50:20.110Z,4.00
2023-01-13T06:52:48.270Z,4.75
2023-01-13T06:55:16.582Z,4.25
2023-01-13T06:57:52.317Z,4.00
2023-01-13T07:00:20.881Z,3.75
2023-01-13T07:02:49.218Z,3.25
2023-01-13T07:05:17.459Z,4.00
2023-01-13T07:07:46.736Z,3.25
2023-01-13T07:10:22.587Z,4.00
2023-01-13T07:13:08.237Z,4.00
2023-01-13T07:15:36.297Z,2.75
2023-01-13T07:18:04.209Z,3.50
2023-01-13T07:20:32.299Z,2.00
2023-01-13T07:23:02.251Z,3.00
2023-01-13T07:25:30.653Z,3.00
2023-01-13T07:27:59.205Z,3.00
2023-01-13T07:30:27.119Z,3.00
2023-01-13T07:32:55.256Z,3.00
2023-01-13T07:35:23.506Z,3.00
2023-01-13T07:37:51.631Z,3.25
2023-01-13T07:40:21.002Z,3.50
2023-01-13T07:43:06.669Z,3.00
2023-01-13T07:45:34.599Z,3.00
2023-01-13T07:48:02.514Z,3.00
2023-01-13T07:50:30.391Z,2.25
2023-01-13T07:52:59.165Z,2.50
2023-01-13T07:55:28.434Z,2.00
2023-01-13T07:57:56.345Z,2.00
2023-01-13T08:00:24.950Z,2.00
2023-01-13T08:02:53.170Z,2.50
2023-01-13T08:05:21.069Z,2.00
2023-01-13T08:07:48.936Z,2.00
2023-01-13T08:10:17.484Z,2.00
2023-01-13T08:13:04.693Z,2.00
2023-01-13T08:15:32.652Z,2.00
2023-01-13T08:18:02.686Z,1.75
2023-01-13T08:20:30.614Z,2.00
2023-01-13T08:22:58.970Z,2.00
2023-01-13T08:25:30.040Z,2.00
2023-01-13T08:28:00.322Z,2.00
2023-01-13T08:30:28.379Z,1.25
2023-01-13T08:32:56.605Z,1.50
2023-01-13T08:35:24.590Z,2.00
2023-01-13T08:37:52.591Z,1.00
2023-01-13T08:40:20.893Z,1.75
2023-01-13T08:42:49.298Z,1.75
2023-01-13T08:45:18.625Z,2.00
2023-01-13T08:47:46.524Z,1.25
2023-01-13T08:50:14.558Z,1.00
2023-01-13T08:52:43.747Z,1.00
2023-01-13T08:55:11.735Z,1.25
2023-01-13T08:57:39.730Z,1.00
2023-01-13T09:00:10.448Z,1.00
2023-01-13T09:02:40.011Z,1.00
2023-01-13T09:05:08.217Z,0.75
2023-01-13T09:07:36.237Z,1.00
2023-01-13T09:10:04.294Z,1.25
2023-01-13T09:12:49.980Z,0.00
2023-01-13T09:15:18.653Z,1.75
2023-01-13T09:17:48.171Z,1.00
2023-01-13T09:20:16.032Z,1.00
2023-01-13T09:22:44.342Z,1.00
2023-01-13T09:25:12.864Z,1.00
2023-01-13T09:27:40.747Z,0.75
2023-01-13T09:30:12.678Z,1.00
2023-01-13T09:32:40.828Z,1.00
2023-01-13T09:35:09.877Z,1.00
2023-01-13T09:37:38.559Z,1.00
2023-01-13T09:40:07.803Z,1.00
2023-01-13T09:42:59.245Z,1.00
2023-01-13T09:45:28.676Z,0.75
2023-01-13T09:47:58.881Z,0.25
2023-01-13T09:50:34.392Z,0.00
2023-01-13T09:53:02.355Z,1.00
2023-01-13T09:55:33.171Z,1.00
2023-01-13T09:58:02.549Z,1.00
2023-01-13T10:00:37.765Z,0.50
2023-01-13T10:03:14.812Z,1.00
2023-01-13T10:05:45.003Z,1.00
2023-01-13T10:08:13.824Z,1.00
2023-01-13T10:10:44.233Z,1.00
2023-01-13T10:13:21.341Z,0.00
2023-01-13T10:16:05.126Z,0.00
2023-01-13T10:18:41.444Z,0.00
2023-01-13T10:21:17.198Z,0.00
2023-01-13T10:24:01.426Z,0.75
2023-01-13T10:26:39.139Z,1.00
2023-01-13T10:29:26.700Z,0.00
2023-01-13T10:31:54.796Z,1.00
2023-01-13T10:34:23.812Z,0.00
2023-01-13T10:37:01.635Z,1.00
2023-01-13T10:39:30.139Z,1.00
2023-01-13T10:42:04.637Z,0.25
2023-01-13T10:44:32.582Z,1.00
2023-01-13T10:47:00.607Z,0.25
2023-01-13T10:49:33.816Z,1.00
2023-01-13T10:52:03.138Z,0.00
2023-01-13T10:54:31.258Z,0.25
2023-01-13T10:57:15.179Z,1.00
2023-01-13T10:59:43.111Z,0.75
2023-01-13T11:02:26.285Z,0.75
2023-01-13T11:05:11.336Z,0.00
2023-01-13T11:07:41.396Z,1.00
2023-01-13T11:10:19.745Z,1.00
2023-01-13T11:12:52.288Z,0.00
2023-01-13T11:15:21.596Z,0.50
2023-01-13T11:17:51.932Z,0.00
2023-01-13T11:20:21.561Z,0.50
2023-01-13T11:22:55.660Z,0.00
2023-01-13T11:25:25.264Z,0.00
2023-01-13T11:27:56.399Z,0.00
2023-01-13T11:30:30.513Z,0.00
2023-01-13T11:33:08.980Z,0.25
2023-01-13T11:35:39.927Z,0.00
2023-01-13T11:38:13.096Z,0.00
2023-01-13T11:40:42.432Z,0.00
2023-01-13T11:43:13.732Z,1.00
2023-01-13T11:45:43.459Z,1.00
2023-01-13T11:48:13.995Z,0.00
2023-01-13T11:50:43.413Z,0.00
2023-01-13T11:53:21.549Z,0.00
2023-01-13T11:55:54.495Z,0.00
2023-01-13T11:58:49.814Z,0.00
2023-01-13T12:01:25.321Z,0.00
2023-01-13T12:03:58.653Z,0.00
2023-01-13T12:06:32.066Z,0.00
2023-01-13T12:09:22.564Z,0.00
2023-01-13T12:12:15.413Z,1.00
2023-01-13T12:14:51.006Z,0.50
2023-01-13T12:17:23.948Z,0.00
2023-01-13T12:19:52.252Z,0.00
2023-01-13T12:22:22.901Z,0.00
2023-01-13T12:24:53.496Z,0.00
2023-01-13T12:27:24.739Z,0.00
2023-01-13T12:29:53.279Z,0.00
2023-01-13T12:32:23.659Z,0.00
2023-01-13T12:34:58.419Z,0.75
2023-01-13T12:37:28.542Z,0.00
2023-01-13T12:40:06.623Z,0.75
2023-01-13T12:42:53.411Z,0.00
2023-01-13T12:45:26.970Z,0.00
2023-01-13T12:47:54.936Z,0.00
2023-01-13T12:50:43.771Z,0.75
2023-01-13T12:53:34.349Z,0.00
2023-01-13T12:56:42.128Z,0.00
2023-01-13T12:59:48.866Z,0.00
2023-01-13T13:02:33.384Z,0.00
2023-01-13T13:05:17.586Z,0.00
2023-01-13T13:07:51.034Z,0.00
2023-01-13T13:10:21.508Z,0.00
2023-01-13T13:13:18.103Z,0.00
2023-01-13T13:15:46.475Z,0.00
2023-01-13T13:18:27.417Z,0.00
2023-01-13T13:21:03.944Z,0.00
2023-01-13T13:24:04.567Z,0.00
2023-01-13T13:26:39.717Z,0.00
2023-01-13T13:29:25.594Z,0.00
2023-01-13T13:32:27.923Z,0.00
2023-01-13T13:35:05.728Z,0.00
2023-01-13T13:37:56.860Z,0.00
2023-01-13T13:40:43.313Z,0.00
2023-01-13T13:43:31.269Z,0.00
2023-01-13T13:46:18.422Z,0.00
2023-01-13T13:48:53.769Z,0.75
2023-01-13T13:51:27.422Z,0.00
2023-01-13T13:53:55.864Z,0.00
2023-01-13T13:56:25.478Z,0.00
2023-01-13T13:58:53.411Z,0.00
2023-01-13T14:01:26.040Z,0.00
2023-01-13T14:04:08.527Z,0.00
2023-01-13T14:06:36.424Z,0.00
2023-01-13T14:09:04.465Z,0.00
2023-01-13T14:11:33.373Z,0.00
2023-01-13T14:14:05.067Z,0.00
2023-01-13T14:16:36.290Z,0.00
2023-01-13T14:19:04.329Z,0.00
2023-01-13T14:21:32.545Z,0.00
2023-01-13T14:24:01.486Z,0.00
2023-01-13T14:26:30.484Z,0.00
2023-01-13T14:28:58.525Z,0.00
2023-01-13T14:31:26.797Z,0.00
2023-01-13T14:33:57.016Z,0.00
2023-01-13T14:36:25.112Z,0.00
2023-01-13T14:39:26.287Z,0.00
2023-01-13T14:41:54.196Z,0.00
2023-01-13T14:44:25.120Z,0.00
2023-01-13T14:46:54.152Z,0.00
2023-01-13T14:49:27.403Z,0.00
2023-01-13T14:51:55.568Z,0.00
2023-01-13T14:54:44.117Z,0.00
2023-01-13T14:57:25.579Z,0.00
2023-01-13T14:59:59.506Z,0.00
2023-01-13T15:02:49.072Z,0.00
2023-01-13T15:05:37.577Z,1.00
2023-01-13T15:08:09.855Z,0.00
2023-01-13T15:10:38.789Z,0.00
2023-01-13T15:13:07.542Z,0.00
2023-01-13T15:15:36.138Z,0.00
2023-01-13T15:18:07.128Z,0.00
2023-01-13T15:20:35.036Z,0.00
2023-01-13T15:23:04.597Z,0.00
2023-01-13T15:25:33.074Z,0.00
2023-01-13T15:28:00.989Z,0.00
2023-01-13T15:30:29.170Z,0.50
2023-01-13T15:32:58.771Z,0.00
2023-01-13T15:35:27.452Z,0.75
2023-01-13T15:37:56.353Z,0.00
2023-01-13T15:40:27.718Z,0.00
2023-01-13T15:43:14.674Z,0.00
2023-01-13T15:46:00.053Z,0.00
2023-01-13T15:48:29.501Z,0.00
2023-01-13T15:50:58.645Z,0.00
2023-01-13T15:53:26.929Z,0.00
2023-01-13T15:55:56.963Z,0.00
2023-01-13T15:58:28.193Z,0.00
2023-01-13T16:00:56.803Z,0.00
2023-01-13T16:03:27.757Z,0.00
2023-01-13T16:05:55.667Z,0.00
2023-01-13T16:08:26.133Z,0.00
2023-01-13T16:10:56.956Z,0.00
2023-01-13T16:13:27.836Z,0.00
2023-01-13T16:15:56.817Z,0.00
2023-01-13T16:18:24.923Z,0.00
2023-01-13T16:20:55.099Z,1.00
2023-01-13T16:23:23.411Z,0.00
2023-01-13T16:25:53.952Z,0.00
2023-01-13T16:28:28.199Z,0.00
2023-01-13T16:30:56.178Z,0.00
2023-01-13T16:33:24.092Z,0.00
2023-01-13T16:36:10.586Z,0.00
2023-01-13T16:38:40.118Z,0.00
2023-01-13T16:41:19.275Z,0.25
2023-01-13T16:43:48.866Z,0.00
2023-01-13T16:46:24.784Z,0.00
2023-01-13T16:48:53.760Z,0.00
2023-01-13T16:51:24.685Z,0.00
2023-01-13T16:53:52.745Z,0.00
2023-01-13T16:56:30.467Z,0.00
2023-01-13T16:59:03.278Z,1.00
2023-01-13T17:01:34.174Z,1.00
2023-01-13T17:04:02.788Z,4.25
2023-01-13T17:06:35.446Z,5.75
2023-01-13T17:09:07.089Z,9.25
2023-01-13T17:11:39.252Z,6.75
2023-01-13T17:14:19.181Z,7.00
2023-01-13T17:16:52.521Z,8.00
2023-01-13T17:19:25.901Z,6.25
2023-01-13T17:21:54.176Z,7.50
2023-01-13T17:24:24.716Z,5.75
2023-01-13T17:26:52.730Z,7.00
2023-01-13T17:29:22.950Z,5.00
2023-01-13T17:31:51.454Z,6.00
2023-01-13T17:34:19.884Z,7.00
2023-01-13T17:36:48.041Z,7.00
2023-01-13T17:39:17.111Z,8.00
2023-01-13T17:41:45.378Z,7.75
2023-01-13T17:44:14.275Z,7.50
2023-01-13T17:46:43.604Z,8.75
2023-01-13T17:49:12.071Z,8.25
2023-01-13T17:51:40.247Z,7.00
2023-01-13T17:54:12.218Z,8.00
2023-01-13T17:56:40.280Z,8.00
2023-01-13T17:59:10.081Z,8.00
2023-01-13T18:01:38.796Z,8.00
2023-01-13T18:04:08.098Z,6.50
2023-01-13T18:06:36.001Z,7.75
2023-01-13T18:09:03.938Z,8.00
2023-01-13T18:11:31.778Z,8.00
2023-01-13T18:14:00.275Z,6.00
2023-01-13T18:16:30.159Z,5.25
2023-01-13T18:19:19.595Z,6.75
2023-01-13T18:22:06.406Z,5.00
2023-01-13T18:24:51.851Z,6.75
2023-01-13T18:27:22.871Z,6.25
2023-01-13T18:29:51.520Z,7.00
2023-01-13T18:32:21.078Z,8.00
2023-01-13T18:34:49.132Z,9.50
2023-01-13T18:37:19.679Z,9.00
2023-01-13T18:39:48.144Z,7.75
2023-01-13T18:42:33.779Z,11.00
2023-01-13T18:45:01.767Z,8.75
2023-01-13T18:47:30.497Z,9.00
2023-01-13T18:49:58.468Z,9.50
2023-01-13T18:52:28.178Z,10.00
2023-01-13T18:54:56.081Z,9.75
2023-01-13T18:57:23.947Z,9.00
2023-01-13T18:59:51.865Z,9.50
2023-01-13T19:02:21.322Z,8.75
2023-01-13T19:04:49.498Z,9.00
2023-01-13T19:07:23.307Z,9.50
2023-01-13T19:09:52.816Z,9.00
2023-01-13T19:12:26.082Z,9.00
2023-01-13T19:14:54.468Z,8.00
2023-01-13T19:17:22.651Z,10.00
2023-01-13T19:19:51.896Z,8.50
2023-01-13T19:22:22.563Z,9.00
2023-01-13T19:24:51.859Z,12.00
2023-01-13T19:27:20.467Z,12.50
2023-01-13T19:29:52.115Z,12.00
2023-01-13T19:32:21.007Z,13.00
2023-01-13T19:34:51.082Z,12.25
2023-01-13T19:37:19.371Z,11.25
2023-01-13T19:39:47.307Z,12.75
2023-01-13T19:42:34.541Z,11.50
2023-01-13T19:45:20.061Z,11.00
2023-01-13T19:47:48.062Z,11.75
2023-01-13T19:50:16.126Z,11.00
2023-01-13T19:52:44.075Z,10.25
2023-01-13T19:55:12.523Z,11.00
2023-01-13T19:57:41.826Z,10.00
2023-01-13T20:00:14.228Z,10.25
2023-01-13T20:02:47.813Z,11.00
2023-01-13T20:05:18.247Z,9.00
2023-01-13T20:07:46.200Z,9.75
2023-01-13T20:10:14.280Z,10.00
2023-01-13T20:12:43.609Z,9.00
2023-01-13T20:15:12.179Z,8.25
2023-01-13T20:17:41.411Z,8.50
2023-01-13T20:20:11.888Z,9.00
2023-01-13T20:22:40.174Z,8.75
2023-01-13T20:25:08.647Z,8.00
2023-01-13T20:27:37.759Z,10.75
2023-01-13T20:30:13.679Z,12.25
2023-01-13T20:32:41.652Z,9.50
2023-01-13T20:35:09.873Z,11.75
2023-01-13T20:37:38.237Z,12.25
2023-01-13T20:40:07.399Z,12.00
2023-01-13T20:42:44.703Z,12.50
2023-01-13T20:45:17.316Z,12.00
2023-01-13T20:47:45.806Z,11.25
2023-01-13T20:50:13.740Z,11.75
2023-01-13T20:52:42.234Z,13.00
2023-01-13T20:55:10.559Z,13.00
2023-01-13T20:57:38.419Z,12.25
2023-01-13T21:00:10.187Z,12.50
2023-01-13T21:02:40.101Z,12.00
2023-01-13T21:05:08.601Z,12.00
2023-01-13T21:07:36.505Z,12.00
2023-01-13T21:10:04.586Z,13.00
2023-01-13T21:12:50.635Z,15.00
2023-01-13T21:15:19.687Z,12.50
2023-01-13T21:18:03.540Z,13.00
2023-01-13T21:20:33.248Z,14.50
2023-01-13T21:23:01.847Z,32.25
2023-01-13T21:25:29.827Z,38.50
2023-01-13T21:28:00.342Z,45.75
2023-01-13T21:30:28.371Z,49.75
2023-01-13T21:32:58.413Z,84.25
2023-01-13T21:35:26.317Z,114.00
2023-01-13T21:37:54.317Z,129.25
2023-01-13T21:40:22.241Z,103.50
2023-01-13T21:43:07.239Z,97.75
2023-01-13T21:46:07.365Z,101.50
2023-01-13T21:48:36.682Z,83.00
2023-01-13T21:51:05.149Z,97.00
2023-01-13T21:53:33.102Z,100.50
2023-01-13T21:56:01.032Z,97.50
2023-01-13T21:58:28.976Z,93.25
2023-01-13T22:00:57.257Z,100.50
2023-01-13T22:03:25.216Z,99.50
2023-01-13T22:05:57.457Z,94.25
2023-01-13T22:08:25.397Z,99.25
2023-01-13T22:10:58.619Z,94.25
2023-01-13T22:13:44.172Z,88.75
2023-01-13T22:16:12.322Z,88.75
2023-01-13T22:18:40.304Z,88.50
2023-01-13T22:21:10.933Z,84.25
2023-01-13T22:23:38.937Z,83.50
2023-01-13T22:26:07.583Z,84.75
2023-01-13T22:28:40.721Z,78.50
2023-01-13T22:31:10.938Z,80.50
2023-01-13T22:33:39.037Z,76.25
2023-01-13T22:36:07.870Z,76.00
2023-01-13T22:38:37.510Z,71.50
2023-01-13T22:41:06.594Z,75.50
2023-01-13T22:43:34.756Z,73.00
2023-01-13T22:46:07.350Z,70.25
2023-01-13T22:48:35.345Z,68.00
2023-01-13T22:51:07.196Z,68.25
2023-01-13T22:53:35.459Z,65.75
2023-01-13T22:56:05.147Z,61.75
2023-01-13T22:58:32.988Z,62.75
2023-01-13T23:01:09.179Z,57.25
2023-01-13T23:03:37.220Z,61.00
2023-01-13T23:06:05.778Z,58.75
2023-01-13T23:08:34.060Z,58.25
2023-01-13T23:11:04.148Z,55.50
2023-01-13T23:13:32.019Z,56.25
2023-01-13T23:16:03.377Z,53.50
2023-01-13T23:18:31.349Z,53.00
2023-01-13T23:21:03.606Z,53.75
2023-01-13T23:23:31.748Z,52.75
2023-01-13T23:25:59.761Z,51.25
2023-01-13T23:28:29.143Z,50.00
2023-01-13T23:30:57.542Z,47.50
2023-01-13T23:33:25.603Z,40.75
2023-01-13T23:35:57.080Z,46.50
2023-01-13T23:38:25.089Z,45.00
2023-01-13T23:40:53.071Z,43.75
2023-01-13T23:43:21.068Z,42.75
2023-01-13T23:45:50.480Z,39.75
2023-01-13T23:48:18.797Z,40.75
2023-01-13T23:50:51.127Z,39.75
2023-01-13T23:53:19.075Z,40.50
2023-01-13T23:55:46.953Z,39.00
2023-01-13T23:58:14.857Z,38.50
